sensor_id;sensor_type;location;lat;lon;timestamp;pressure;altitude;pressure_sealevel;temperature;humidity
18821;BME280;9539;59.332;18.034;2022-07-23T00:01:54;100698.44;;;19.69;100.00
18821;BME280;9539;59.332;18.034;2022-07-23T00:04:21;100688.97;;;19.65;100.00
18821;BME280;9539;59.332;18.034;2022-07-23T00:06:48;100702.38;;;19.74;100.00
18821;BME280;9539;59.332;18.034;2022-07-23T00:09:15;100690.22;;;19.70;100.00
18821;BME280;9539;59.332;18.034;2022-07-23T00:11:43;100690.13;;;19.80;100.00
18821;BME280;9539;59.332;18.034;2022-07-23T00:14:09;100693.22;;;19.85;100.00
18821;BME280;9539;59.332;18.034;2022-07-23T00:16:36;100684.91;;;19.78;100.00
18821;BME280;9539;59.332;18.034;2022-07-23T00:19:02;100689.66;;;19.67;100.00
18821;BME280;9539;59.332;18.034;2022-07-23T00:21:29;100695.84;;;19.77;100.00
18821;BME280;9539;59.332;18.034;2022-07-23T00:23:56;100693.59;;;19.54;100.00
18821;BME280;9539;59.332;18.034;2022-07-23T00:26:22;100695.13;;;19.57;100.00
18821;BME280;9539;59.332;18.034;2022-07-23T00:28:51;100695.38;;;19.64;100.00
18821;BME280;9539;59.332;18.034;2022-07-23T00:31:18;100696.19;;;19.64;100.00
18821;BME280;9539;59.332;18.034;2022-07-23T00:33:45;100693.69;;;19.63;100.00
18821;BME280;9539;59.332;18.034;2022-07-23T00:36:11;100701.81;;;19.53;100.00
18821;BME280;9539;59.332;18.034;2022-07-23T00:38:38;100702.59;;;19.36;100.00
18821;BME280;9539;59.332;18.034;2022-07-23T00:41:05;100709.97;;;19.34;100.00
18821;BME280;9539;59.332;18.034;2022-07-23T00:43:31;100699.59;;;19.39;100.00
18821;BME280;9539;59.332;18.034;2022-07-23T00:45:59;100703.63;;;19.25;100.00
18821;BME280;9539;59.332;18.034;2022-07-23T00:48:26;100703.34;;;19.28;100.00
18821;BME280;9539;59.332;18.034;2022-07-23T00:50:53;100702.50;;;19.28;100.00
18821;BME280;9539;59.332;18.034;2022-07-23T00:53:20;100696.59;;;19.24;100.00
18821;BME280;9539;59.332;18.034;2022-07-23T00:55:47;100699.78;;;19.00;100.00
18821;BME280;9539;59.332;18.034;2022-07-23T00:58:14;100708.00;;;18.71;100.00
18821;BME280;9539;59.332;18.034;2022-07-23T01:00:41;100706.41;;;18.79;100.00
18821;BME280;9539;59.332;18.034;2022-07-23T01:03:10;100702.75;;;18.60;100.00
18821;BME280;9539;59.332;18.034;2022-07-23T01:05:36;100711.28;;;18.56;100.00
18821;BME280;9539;59.332;18.034;2022-07-23T01:08:05;100681.28;;;18.51;100.00
18821;BME280;9539;59.332;18.034;2022-07-23T01:10:32;100697.09;;;18.73;100.00
18821;BME280;9539;59.332;18.034;2022-07-23T01:13:00;100717.31;;;18.67;100.00
18821;BME280;9539;59.332;18.034;2022-07-23T01:15:27;100706.88;;;18.64;100.00
18821;BME280;9539;59.332;18.034;2022-07-23T01:17:53;100710.41;;;18.65;100.00
18821;BME280;9539;59.332;18.034;2022-07-23T01:20:22;100711.97;;;18.58;100.00
18821;BME280;9539;59.332;18.034;2022-07-23T01:22:50;100713.78;;;18.67;100.00
18821;BME280;9539;59.332;18.034;2022-07-23T01:25:17;100705.16;;;18.54;100.00
18821;BME280;9539;59.332;18.034;2022-07-23T01:27:44;100704.91;;;18.47;100.00
18821;BME280;9539;59.332;18.034;2022-07-23T01:30:11;100708.16;;;18.51;100.00
18821;BME280;9539;59.332;18.034;2022-07-23T01:32:38;100699.81;;;18.34;100.00
18821;BME280;9539;59.332;18.034;2022-07-23T01:35:06;100692.47;;;18.36;100.00
18821;BME280;9539;59.332;18.034;2022-07-23T01:37:33;100702.13;;;18.20;100.00
18821;BME280;9539;59.332;18.034;2022-07-23T01:40:02;100696.34;;;18.15;100.00
18821;BME280;9539;59.332;18.034;2022-07-23T01:42:29;100706.06;;;18.25;100.00
18821;BME280;9539;59.332;18.034;2022-07-23T01:44:56;100705.53;;;17.93;100.00
18821;BME280;9539;59.332;18.034;2022-07-23T01:47:23;100708.94;;;17.95;100.00
18821;BME280;9539;59.332;18.034;2022-07-23T01:49:49;100711.44;;;17.96;100.00
18821;BME280;9539;59.332;18.034;2022-07-23T01:52:16;100714.69;;;17.90;100.00
18821;BME280;9539;59.332;18.034;2022-07-23T01:54:43;100698.31;;;17.84;100.00
18821;BME280;9539;59.332;18.034;2022-07-23T01:57:11;100705.38;;;17.75;100.00
18821;BME280;9539;59.332;18.034;2022-07-23T01:59:38;100701.72;;;17.86;100.00
18821;BME280;9539;59.332;18.034;2022-07-23T02:02:05;100707.19;;;17.65;100.00
18821;BME280;9539;59.332;18.034;2022-07-23T02:04:32;100704.31;;;17.57;100.00
18821;BME280;9539;59.332;18.034;2022-07-23T02:07:01;100704.66;;;17.64;100.00
18821;BME280;9539;59.332;18.034;2022-07-23T02:09:28;100687.97;;;17.60;100.00
18821;BME280;9539;59.332;18.034;2022-07-23T02:11:56;100697.75;;;17.61;100.00
18821;BME280;9539;59.332;18.034;2022-07-23T02:14:24;100697.25;;;17.46;100.00
18821;BME280;9539;59.332;18.034;2022-07-23T02:16:50;100685.97;;;17.52;100.00
18821;BME280;9539;59.332;18.034;2022-07-23T02:19:17;100686.81;;;17.53;100.00
18821;BME280;9539;59.332;18.034;2022-07-23T02:21:44;100688.09;;;17.58;100.00
18821;BME280;9539;59.332;18.034;2022-07-23T02:24:11;100696.91;;;17.21;100.00
18821;BME280;9539;59.332;18.034;2022-07-23T02:26:38;100686.09;;;17.41;100.00
18821;BME280;9539;59.332;18.034;2022-07-23T02:29:05;100689.38;;;17.54;100.00
18821;BME280;9539;59.332;18.034;2022-07-23T02:31:33;100683.34;;;17.62;100.00
18821;BME280;9539;59.332;18.034;2022-07-23T02:34:01;100681.31;;;17.54;100.00
18821;BME280;9539;59.332;18.034;2022-07-23T02:36:28;100678.22;;;17.49;100.00
18821;BME280;9539;59.332;18.034;2022-07-23T02:38:55;100681.28;;;17.45;100.00
18821;BME280;9539;59.332;18.034;2022-07-23T02:41:22;100685.69;;;17.46;100.00
18821;BME280;9539;59.332;18.034;2022-07-23T02:43:49;100690.56;;;17.22;100.00
18821;BME280;9539;59.332;18.034;2022-07-23T02:46:16;100682.97;;;17.27;100.00
18821;BME280;9539;59.332;18.034;2022-07-23T02:48:44;100689.63;;;17.42;100.00
18821;BME280;9539;59.332;18.034;2022-07-23T02:51:11;100686.09;;;17.41;100.00
18821;BME280;9539;59.332;18.034;2022-07-23T02:53:37;100702.44;;;17.29;100.00
18821;BME280;9539;59.332;18.034;2022-07-23T02:56:04;100689.31;;;17.26;100.00
18821;BME280;9539;59.332;18.034;2022-07-23T02:58:31;100706.91;;;17.18;100.00
18821;BME280;9539;59.332;18.034;2022-07-23T03:00:58;100705.00;;;17.40;100.00
18821;BME280;9539;59.332;18.034;2022-07-23T03:03:24;100710.75;;;17.26;100.00
18821;BME280;9539;59.332;18.034;2022-07-23T03:05:52;100711.78;;;17.34;100.00
18821;BME280;9539;59.332;18.034;2022-07-23T03:08:19;100715.31;;;17.35;100.00
18821;BME280;9539;59.332;18.034;2022-07-23T03:10:46;100713.47;;;17.35;100.00
18821;BME280;9539;59.332;18.034;2022-07-23T03:13:13;100695.66;;;17.25;100.00
18821;BME280;9539;59.332;18.034;2022-07-23T03:15:39;100709.94;;;17.44;100.00
18821;BME280;9539;59.332;18.034;2022-07-23T03:18:06;100718.84;;;17.35;100.00
18821;BME280;9539;59.332;18.034;2022-07-23T03:20:32;100721.81;;;17.42;100.00
18821;BME280;9539;59.332;18.034;2022-07-23T03:23:00;100723.09;;;17.47;100.00
18821;BME280;9539;59.332;18.034;2022-07-23T03:25:27;100723.91;;;17.29;100.00
18821;BME280;9539;59.332;18.034;2022-07-23T03:27:54;100725.31;;;17.33;100.00
18821;BME280;9539;59.332;18.034;2022-07-23T03:30:21;100723.59;;;17.22;100.00
18821;BME280;9539;59.332;18.034;2022-07-23T03:32:48;100699.84;;;17.08;100.00
18821;BME280;9539;59.332;18.034;2022-07-23T03:35:15;100709.41;;;17.01;100.00
18821;BME280;9539;59.332;18.034;2022-07-23T03:37:41;100717.88;;;17.06;100.00
18821;BME280;9539;59.332;18.034;2022-07-23T03:40:10;100719.63;;;17.16;100.00
18821;BME280;9539;59.332;18.034;2022-07-23T03:42:37;100728.97;;;17.22;100.00
18821;BME280;9539;59.332;18.034;2022-07-23T03:45:06;100723.56;;;17.12;100.00
18821;BME280;9539;59.332;18.034;2022-07-23T03:47:33;100719.06;;;16.83;100.00
18821;BME280;9539;59.332;18.034;2022-07-23T03:50:00;100711.53;;;17.07;100.00
18821;BME280;9539;59.332;18.034;2022-07-23T03:52:27;100716.13;;;17.26;100.00
18821;BME280;9539;59.332;18.034;2022-07-23T03:54:53;100723.34;;;17.35;100.00
18821;BME280;9539;59.332;18.034;2022-07-23T03:57:22;100701.81;;;17.55;100.00
18821;BME280;9539;59.332;18.034;2022-07-23T03:59:48;100709.66;;;17.38;100.00
18821;BME280;9539;59.332;18.034;2022-07-23T04:02:15;100719.94;;;17.82;100.00
18821;BME280;9539;59.332;18.034;2022-07-23T04:04:42;100713.16;;;17.88;100.00
18821;BME280;9539;59.332;18.034;2022-07-23T04:07:08;100720.22;;;17.89;100.00
18821;BME280;9539;59.332;18.034;2022-07-23T04:09:35;100721.19;;;17.78;100.00
18821;BME280;9539;59.332;18.034;2022-07-23T04:12:02;100718.34;;;17.70;100.00
18821;BME280;9539;59.332;18.034;2022-07-23T04:14:30;100723.34;;;17.75;100.00
18821;BME280;9539;59.332;18.034;2022-07-23T04:16:56;100721.91;;;17.90;100.00
18821;BME280;9539;59.332;18.034;2022-07-23T04:19:23;100713.09;;;17.49;100.00
18821;BME280;9539;59.332;18.034;2022-07-23T04:21:50;100722.50;;;17.44;100.00
18821;BME280;9539;59.332;18.034;2022-07-23T04:24:17;100706.34;;;17.65;100.00
18821;BME280;9539;59.332;18.034;2022-07-23T04:26:44;100725.03;;;17.85;100.00
18821;BME280;9539;59.332;18.034;2022-07-23T04:29:11;100722.22;;;17.87;100.00
18821;BME280;9539;59.332;18.034;2022-07-23T04:31:39;100729.41;;;17.86;100.00
18821;BME280;9539;59.332;18.034;2022-07-23T04:34:05;100727.44;;;17.98;100.00
18821;BME280;9539;59.332;18.034;2022-07-23T04:36:32;100724.47;;;17.91;100.00
18821;BME280;9539;59.332;18.034;2022-07-23T04:38:59;100731.25;;;17.86;100.00
18821;BME280;9539;59.332;18.034;2022-07-23T04:41:25;100726.84;;;17.85;100.00
18821;BME280;9539;59.332;18.034;2022-07-23T04:43:52;100728.97;;;17.91;100.00
18821;BME280;9539;59.332;18.034;2022-07-23T04:46:19;100725.88;;;18.15;100.00
18821;BME280;9539;59.332;18.034;2022-07-23T04:48:47;100731.47;;;17.64;100.00
18821;BME280;9539;59.332;18.034;2022-07-23T04:51:15;100728.81;;;17.73;100.00
18821;BME280;9539;59.332;18.034;2022-07-23T04:53:41;100735.78;;;17.95;100.00
18821;BME280;9539;59.332;18.034;2022-07-23T04:56:08;100722.88;;;17.70;100.00
18821;BME280;9539;59.332;18.034;2022-07-23T04:58:35;100738.00;;;17.71;100.00
18821;BME280;9539;59.332;18.034;2022-07-23T05:01:01;100738.16;;;17.79;100.00
18821;BME280;9539;59.332;18.034;2022-07-23T05:03:28;100737.03;;;17.81;100.00
18821;BME280;9539;59.332;18.034;2022-07-23T05:05:57;100737.44;;;17.77;100.00
18821;BME280;9539;59.332;18.034;2022-07-23T05:08:23;100738.00;;;17.90;100.00
18821;BME280;9539;59.332;18.034;2022-07-23T05:10:50;100740.84;;;17.79;100.00
18821;BME280;9539;59.332;18.034;2022-07-23T05:13:18;100750.44;;;17.62;100.00
18821;BME280;9539;59.332;18.034;2022-07-23T05:15:45;100754.81;;;17.73;100.00
18821;BME280;9539;59.332;18.034;2022-07-23T05:18:12;100745.78;;;17.83;100.00
18821;BME280;9539;59.332;18.034;2022-07-23T05:20:38;100740.97;;;17.77;100.00
18821;BME280;9539;59.332;18.034;2022-07-23T05:23:06;100748.47;;;17.83;100.00
18821;BME280;9539;59.332;18.034;2022-07-23T05:25:33;100751.31;;;17.82;100.00
18821;BME280;9539;59.332;18.034;2022-07-23T05:28:02;100741.56;;;17.81;100.00
18821;BME280;9539;59.332;18.034;2022-07-23T05:30:29;100731.09;;;17.68;100.00
18821;BME280;9539;59.332;18.034;2022-07-23T05:32:55;100730.25;;;17.68;100.00
18821;BME280;9539;59.332;18.034;2022-07-23T05:35:22;100734.78;;;17.86;100.00
18821;BME280;9539;59.332;18.034;2022-07-23T05:37:49;100739.00;;;17.89;100.00
18821;BME280;9539;59.332;18.034;2022-07-23T05:40:19;100734.69;;;17.48;100.00
18821;BME280;9539;59.332;18.034;2022-07-23T05:42:46;100749.94;;;17.57;100.00
18821;BME280;9539;59.332;18.034;2022-07-23T05:45:12;100737.91;;;17.42;100.00
18821;BME280;9539;59.332;18.034;2022-07-23T05:47:41;100726.41;;;17.70;100.00
18821;BME280;9539;59.332;18.034;2022-07-23T05:50:08;100745.50;;;17.96;100.00
18821;BME280;9539;59.332;18.034;2022-07-23T05:52:35;100717.53;;;17.89;100.00
18821;BME280;9539;59.332;18.034;2022-07-23T05:55:01;100725.72;;;17.78;100.00
18821;BME280;9539;59.332;18.034;2022-07-23T05:57:29;100743.13;;;17.93;100.00
18821;BME280;9539;59.332;18.034;2022-07-23T05:59:56;100745.66;;;18.04;100.00
18821;BME280;9539;59.332;18.034;2022-07-23T06:02:23;100735.91;;;18.13;100.00
18821;BME280;9539;59.332;18.034;2022-07-23T06:04:49;100734.19;;;18.21;100.00
18821;BME280;9539;59.332;18.034;2022-07-23T06:07:17;100736.19;;;18.19;100.00
18821;BME280;9539;59.332;18.034;2022-07-23T06:09:44;100728.00;;;18.11;100.00
18821;BME280;9539;59.332;18.034;2022-07-23T06:12:12;100728.25;;;18.37;100.00
18821;BME280;9539;59.332;18.034;2022-07-23T06:14:40;100727.97;;;18.59;100.00
18821;BME280;9539;59.332;18.034;2022-07-23T06:17:07;100730.66;;;18.59;100.00
18821;BME280;9539;59.332;18.034;2022-07-23T06:19:34;100728.34;;;18.74;100.00
18821;BME280;9539;59.332;18.034;2022-07-23T06:22:01;100730.28;;;18.91;100.00
18821;BME280;9539;59.332;18.034;2022-07-23T06:24:27;100706.50;;;18.87;100.00
18821;BME280;9539;59.332;18.034;2022-07-23T06:26:54;100723.41;;;19.06;100.00
18821;BME280;9539;59.332;18.034;2022-07-23T06:29:20;100713.63;;;18.78;100.00
18821;BME280;9539;59.332;18.034;2022-07-23T06:31:48;100731.03;;;18.74;100.00
18821;BME280;9539;59.332;18.034;2022-07-23T06:34:15;100732.47;;;18.68;100.00
18821;BME280;9539;59.332;18.034;2022-07-23T06:36:42;100728.84;;;18.97;100.00
18821;BME280;9539;59.332;18.034;2022-07-23T06:39:08;100723.72;;;19.03;100.00
18821;BME280;9539;59.332;18.034;2022-07-23T06:41:35;100730.28;;;19.18;100.00
18821;BME280;9539;59.332;18.034;2022-07-23T06:44:02;100725.31;;;18.96;100.00
18821;BME280;9539;59.332;18.034;2022-07-23T06:46:28;100733.03;;;19.09;100.00
18821;BME280;9539;59.332;18.034;2022-07-23T06:48:56;100723.63;;;19.23;100.00
18821;BME280;9539;59.332;18.034;2022-07-23T06:51:23;100732.75;;;19.12;100.00
18821;BME280;9539;59.332;18.034;2022-07-23T06:53:50;100722.47;;;18.98;100.00
18821;BME280;9539;59.332;18.034;2022-07-23T06:56:17;100727.56;;;19.28;100.00
18821;BME280;9539;59.332;18.034;2022-07-23T06:58:44;100729.97;;;19.31;100.00
18821;BME280;9539;59.332;18.034;2022-07-23T07:01:10;100737.16;;;19.03;100.00
18821;BME280;9539;59.332;18.034;2022-07-23T07:03:37;100735.06;;;18.97;100.00
18821;BME280;9539;59.332;18.034;2022-07-23T07:06:05;100728.88;;;19.24;100.00
18821;BME280;9539;59.332;18.034;2022-07-23T07:08:32;100741.84;;;19.01;100.00
18821;BME280;9539;59.332;18.034;2022-07-23T07:10:58;100735.94;;;18.88;100.00
18821;BME280;9539;59.332;18.034;2022-07-23T07:13:25;100732.69;;;19.22;100.00
18821;BME280;9539;59.332;18.034;2022-07-23T07:15:52;100737.22;;;19.76;100.00
18821;BME280;9539;59.332;18.034;2022-07-23T07:18:18;100738.13;;;19.84;100.00
18821;BME280;9539;59.332;18.034;2022-07-23T07:20:45;100739.91;;;19.76;100.00
18821;BME280;9539;59.332;18.034;2022-07-23T07:23:13;100740.59;;;19.78;100.00
18821;BME280;9539;59.332;18.034;2022-07-23T07:25:40;100738.75;;;19.78;100.00
18821;BME280;9539;59.332;18.034;2022-07-23T07:28:07;100741.28;;;19.98;100.00
18821;BME280;9539;59.332;18.034;2022-07-23T07:30:33;100754.47;;;20.01;100.00
18821;BME280;9539;59.332;18.034;2022-07-23T07:33:00;100732.22;;;19.81;100.00
18821;BME280;9539;59.332;18.034;2022-07-23T07:35:27;100722.28;;;19.64;100.00
18821;BME280;9539;59.332;18.034;2022-07-23T07:37:54;100756.41;;;20.08;100.00
18821;BME280;9539;59.332;18.034;2022-07-23T07:40:22;100753.22;;;20.13;100.00
18821;BME280;9539;59.332;18.034;2022-07-23T07:42:49;100741.38;;;20.06;100.00
18821;BME280;9539;59.332;18.034;2022-07-23T07:45:19;100746.69;;;20.15;100.00
18821;BME280;9539;59.332;18.034;2022-07-23T07:47:47;100750.56;;;19.95;100.00
18821;BME280;9539;59.332;18.034;2022-07-23T07:50:14;100753.84;;;20.24;100.00
18821;BME280;9539;59.332;18.034;2022-07-23T07:52:41;100747.06;;;20.20;100.00
18821;BME280;9539;59.332;18.034;2022-07-23T07:55:09;100751.31;;;20.05;100.00
18821;BME280;9539;59.332;18.034;2022-07-23T07:57:37;100751.59;;;19.84;100.00
18821;BME280;9539;59.332;18.034;2022-07-23T08:00:06;100745.59;;;19.90;100.00
18821;BME280;9539;59.332;18.034;2022-07-23T08:02:40;100766.97;;;19.57;100.00
18821;BME280;9539;59.332;18.034;2022-07-23T08:05:08;100770.56;;;19.65;100.00
18821;BME280;9539;59.332;18.034;2022-07-23T08:07:34;100767.22;;;19.81;100.00
18821;BME280;9539;59.332;18.034;2022-07-23T08:10:03;100765.69;;;19.51;100.00
18821;BME280;9539;59.332;18.034;2022-07-23T08:12:39;100752.59;;;19.83;100.00
18821;BME280;9539;59.332;18.034;2022-07-23T08:15:07;100764.44;;;19.90;100.00
18821;BME280;9539;59.332;18.034;2022-07-23T08:17:34;100771.75;;;19.80;100.00
18821;BME280;9539;59.332;18.034;2022-07-23T08:20:00;100776.03;;;20.01;100.00
18821;BME280;9539;59.332;18.034;2022-07-23T08:22:41;100779.94;;;20.06;100.00
18821;BME280;9539;59.332;18.034;2022-07-23T08:25:08;100768.16;;;19.89;100.00
18821;BME280;9539;59.332;18.034;2022-07-23T08:27:35;100784.63;;;19.86;100.00
18821;BME280;9539;59.332;18.034;2022-07-23T08:30:04;100788.94;;;19.97;100.00
18821;BME280;9539;59.332;18.034;2022-07-23T08:32:30;100786.09;;;20.16;100.00
18821;BME280;9539;59.332;18.034;2022-07-23T08:34:57;100773.09;;;20.12;100.00
18821;BME280;9539;59.332;18.034;2022-07-23T08:37:24;100791.47;;;19.99;100.00
18821;BME280;9539;59.332;18.034;2022-07-23T08:39:50;100786.47;;;20.04;100.00
18821;BME280;9539;59.332;18.034;2022-07-23T08:42:18;100789.84;;;19.88;100.00
18821;BME280;9539;59.332;18.034;2022-07-23T08:44:47;100777.69;;;19.84;100.00
18821;BME280;9539;59.332;18.034;2022-07-23T08:47:16;100777.28;;;19.61;100.00
18821;BME280;9539;59.332;18.034;2022-07-23T08:49:42;100796.34;;;19.95;100.00
18821;BME280;9539;59.332;18.034;2022-07-23T08:52:10;100794.97;;;20.09;100.00
18821;BME280;9539;59.332;18.034;2022-07-23T08:54:37;100809.31;;;19.82;100.00
18821;BME280;9539;59.332;18.034;2022-07-23T08:57:04;100819.72;;;19.94;100.00
18821;BME280;9539;59.332;18.034;2022-07-23T08:59:31;100814.25;;;20.04;100.00
18821;BME280;9539;59.332;18.034;2022-07-23T09:01:58;100820.72;;;19.66;100.00
18821;BME280;9539;59.332;18.034;2022-07-23T09:04:27;100804.53;;;19.76;100.00
18821;BME280;9539;59.332;18.034;2022-07-23T09:06:54;100803.94;;;19.82;100.00
18821;BME280;9539;59.332;18.034;2022-07-23T09:09:22;100818.66;;;20.05;100.00
18821;BME280;9539;59.332;18.034;2022-07-23T09:12:02;100808.50;;;19.99;100.00
18821;BME280;9539;59.332;18.034;2022-07-23T09:14:40;100809.69;;;19.69;100.00
18821;BME280;9539;59.332;18.034;2022-07-23T09:17:12;100819.13;;;20.01;100.00
18821;BME280;9539;59.332;18.034;2022-07-23T09:19:41;100822.34;;;20.04;100.00
18821;BME280;9539;59.332;18.034;2022-07-23T09:22:19;100824.50;;;20.18;100.00
18821;BME280;9539;59.332;18.034;2022-07-23T09:25:10;100817.28;;;20.01;100.00
18821;BME280;9539;59.332;18.034;2022-07-23T09:27:49;100816.53;;;20.44;100.00
18821;BME280;9539;59.332;18.034;2022-07-23T09:30:16;100811.66;;;20.30;100.00
18821;BME280;9539;59.332;18.034;2022-07-23T09:32:43;100803.22;;;19.52;100.00
18821;BME280;9539;59.332;18.034;2022-07-23T09:35:11;100811.25;;;19.89;100.00
18821;BME280;9539;59.332;18.034;2022-07-23T09:37:37;100814.69;;;20.27;100.00
18821;BME280;9539;59.332;18.034;2022-07-23T09:40:07;100822.91;;;20.08;100.00
18821;BME280;9539;59.332;18.034;2022-07-23T09:42:34;100824.22;;;19.39;100.00
18821;BME280;9539;59.332;18.034;2022-07-23T09:45:02;100827.66;;;18.75;100.00
18821;BME280;9539;59.332;18.034;2022-07-23T09:47:30;100824.94;;;19.41;100.00
18821;BME280;9539;59.332;18.034;2022-07-23T09:49:59;100833.28;;;19.38;100.00
18821;BME280;9539;59.332;18.034;2022-07-23T09:52:28;100836.03;;;19.66;100.00
18821;BME280;9539;59.332;18.034;2022-07-23T09:54:58;100826.50;;;19.99;100.00
18821;BME280;9539;59.332;18.034;2022-07-23T09:57:26;100833.09;;;19.86;100.00
18821;BME280;9539;59.332;18.034;2022-07-23T09:59:52;100825.63;;;19.43;100.00
18821;BME280;9539;59.332;18.034;2022-07-23T10:02:19;100843.00;;;19.59;100.00
18821;BME280;9539;59.332;18.034;2022-07-23T10:04:47;100829.66;;;20.12;100.00
18821;BME280;9539;59.332;18.034;2022-07-23T10:07:17;100828.03;;;20.46;100.00
18821;BME280;9539;59.332;18.034;2022-07-23T10:09:47;100830.00;;;20.26;100.00
18821;BME280;9539;59.332;18.034;2022-07-23T10:12:15;100832.94;;;20.51;100.00
18821;BME280;9539;59.332;18.034;2022-07-23T10:15:05;100826.69;;;20.50;100.00
18821;BME280;9539;59.332;18.034;2022-07-23T10:17:33;100828.34;;;20.16;100.00
18821;BME280;9539;59.332;18.034;2022-07-23T10:20:01;100812.13;;;20.25;100.00
18821;BME280;9539;59.332;18.034;2022-07-23T10:22:31;100829.06;;;20.18;100.00
18821;BME280;9539;59.332;18.034;2022-07-23T10:25:10;100827.56;;;20.33;100.00
18821;BME280;9539;59.332;18.034;2022-07-23T10:27:56;100844.22;;;20.19;100.00
18821;BME280;9539;59.332;18.034;2022-07-23T10:30:30;100846.75;;;20.03;100.00
18821;BME280;9539;59.332;18.034;2022-07-23T10:33:12;100847.97;;;19.63;100.00
18821;BME280;9539;59.332;18.034;2022-07-23T10:35:48;100845.47;;;18.86;100.00
18821;BME280;9539;59.332;18.034;2022-07-23T10:38:22;100849.88;;;18.68;100.00
18821;BME280;9539;59.332;18.034;2022-07-23T10:40:56;100848.03;;;18.68;100.00
18821;BME280;9539;59.332;18.034;2022-07-23T10:43:24;100843.31;;;19.09;100.00
18821;BME280;9539;59.332;18.034;2022-07-23T10:45:51;100825.53;;;19.26;100.00
18821;BME280;9539;59.332;18.034;2022-07-23T10:48:20;100851.16;;;19.49;100.00
18821;BME280;9539;59.332;18.034;2022-07-23T10:51:08;100842.38;;;19.37;100.00
18821;BME280;9539;59.332;18.034;2022-07-23T10:53:54;100845.91;;;19.47;100.00
18821;BME280;9539;59.332;18.034;2022-07-23T10:56:50;100835.38;;;19.07;100.00
18821;BME280;9539;59.332;18.034;2022-07-23T10:59:17;100837.13;;;18.89;100.00
18821;BME280;9539;59.332;18.034;2022-07-23T11:01:44;100843.22;;;18.43;100.00
18821;BME280;9539;59.332;18.034;2022-07-23T11:04:11;100848.59;;;18.82;100.00
18821;BME280;9539;59.332;18.034;2022-07-23T11:07:06;100847.38;;;19.23;100.00
18821;BME280;9539;59.332;18.034;2022-07-23T11:09:39;100848.44;;;18.73;100.00
18821;BME280;9539;59.332;18.034;2022-07-23T11:12:37;100852.41;;;18.89;100.00
18821;BME280;9539;59.332;18.034;2022-07-23T11:15:06;100830.19;;;18.29;100.00
18821;BME280;9539;59.332;18.034;2022-07-23T11:17:36;100850.41;;;18.43;100.00
18821;BME280;9539;59.332;18.034;2022-07-23T11:20:18;100866.66;;;18.22;100.00
18821;BME280;9539;59.332;18.034;2022-07-23T11:22:51;100869.16;;;17.94;100.00
18821;BME280;9539;59.332;18.034;2022-07-23T11:25:33;100862.09;;;18.03;100.00
18821;BME280;9539;59.332;18.034;2022-07-23T11:28:14;100865.28;;;18.27;100.00
18821;BME280;9539;59.332;18.034;2022-07-23T11:30:42;100864.84;;;18.51;100.00
18821;BME280;9539;59.332;18.034;2022-07-23T11:33:18;100866.56;;;18.52;100.00
18821;BME280;9539;59.332;18.034;2022-07-23T11:35:46;100865.03;;;18.69;100.00
18821;BME280;9539;59.332;18.034;2022-07-23T11:38:15;100863.84;;;18.14;100.00
18821;BME280;9539;59.332;18.034;2022-07-23T11:40:45;100866.75;;;17.91;100.00
18821;BME280;9539;59.332;18.034;2022-07-23T11:43:13;100871.06;;;17.73;100.00
18821;BME280;9539;59.332;18.034;2022-07-23T11:45:42;100866.72;;;17.51;100.00
18821;BME280;9539;59.332;18.034;2022-07-23T11:48:16;100868.69;;;17.49;100.00
18821;BME280;9539;59.332;18.034;2022-07-23T11:50:43;100857.13;;;17.89;100.00
18821;BME280;9539;59.332;18.034;2022-07-23T11:53:10;100847.97;;;18.01;100.00
18821;BME280;9539;59.332;18.034;2022-07-23T11:55:37;100841.09;;;18.27;100.00
18821;BME280;9539;59.332;18.034;2022-07-23T11:58:04;100841.22;;;18.26;100.00
18821;BME280;9539;59.332;18.034;2022-07-23T12:00:32;100854.69;;;18.45;100.00
18821;BME280;9539;59.332;18.034;2022-07-23T12:03:00;100841.50;;;18.42;100.00
18821;BME280;9539;59.332;18.034;2022-07-23T12:05:29;100863.97;;;18.22;100.00
18821;BME280;9539;59.332;18.034;2022-07-23T12:07:57;100857.53;;;18.63;100.00
18821;BME280;9539;59.332;18.034;2022-07-23T12:10:26;100856.13;;;17.90;100.00
18821;BME280;9539;59.332;18.034;2022-07-23T12:12:54;100873.56;;;18.05;100.00
18821;BME280;9539;59.332;18.034;2022-07-23T12:15:23;100872.25;;;17.90;100.00
18821;BME280;9539;59.332;18.034;2022-07-23T12:17:53;100876.69;;;17.70;100.00
18821;BME280;9539;59.332;18.034;2022-07-23T12:20:22;100870.09;;;17.84;100.00
18821;BME280;9539;59.332;18.034;2022-07-23T12:22:51;100863.81;;;17.94;100.00
18821;BME280;9539;59.332;18.034;2022-07-23T12:25:20;100875.53;;;17.93;100.00
18821;BME280;9539;59.332;18.034;2022-07-23T12:27:59;100878.38;;;18.11;100.00
18821;BME280;9539;59.332;18.034;2022-07-23T12:30:28;100880.53;;;18.27;100.00
18821;BME280;9539;59.332;18.034;2022-07-23T12:32:57;100872.78;;;17.74;100.00
18821;BME280;9539;59.332;18.034;2022-07-23T12:35:31;100871.41;;;17.29;100.00
18821;BME280;9539;59.332;18.034;2022-07-23T12:38:00;100880.09;;;17.63;100.00
18821;BME280;9539;59.332;18.034;2022-07-23T12:40:30;100870.47;;;18.29;100.00
18821;BME280;9539;59.332;18.034;2022-07-23T12:43:00;100870.63;;;18.18;100.00
18821;BME280;9539;59.332;18.034;2022-07-23T12:45:28;100872.75;;;18.43;100.00
18821;BME280;9539;59.332;18.034;2022-07-23T12:48:05;100876.16;;;18.45;100.00